Peralta — WDB9847 — position and weather

sailwx.info

Track history (hours):
 
Tides and Currents Weather Stations Pressure Air Temp Water Temp Dewpoint Dewpoint Depression Visibility Wind Speed Wind Dir Waves Ship Positions

Peralta

Owner: Blue and Gold Fleet, San Francisco, CA. More information available from US FCC via Universal Licensing System and Coast Guard Vessel Documentation Center.

Last reported at 2017-Dec-01 18:16 UTC. Time now 2017-Dec-14 13:20 UTC.
Position N 38°06' W 122°16'.
Warning: this ship's position is 12 days out of date.

Length 33 m; draft 2.5 m.

Type: Passenger vessel. MMSI: 366983830.

Date/timePositionNaut miles runAvg speedWind from/ knotsBaromVisibWave heightAir tempDewpointWater temp
2017-Dec-01 18:16N 38°06' W 122°16'2 9.1
2017-Dec-01 18:00N 38°04' W 122°16'1122.5
2017-Dec-01 17:30N 37°57' W 122°27'816.3
2017-Dec-01 17:00N 37°49' W 122°25'1 1.7
2017-Dec-01 16:30N 37°48' W 122°24'0 0.0
2017-Dec-01 04:35N 37°48' W 122°24'0 0.0
2017-Dec-01 04:30N 37°48' W 122°24'815.4
2017-Dec-01 04:00N 37°44' W 122°15'714.6
2017-Dec-01 03:30N 37°48' W 122°24'714.6
2017-Dec-01 03:00N 37°44' W 122°15'714.6
2017-Dec-01 02:31N 37°48' W 122°24'714.6
2017-Dec-01 02:01N 37°44' W 122°15'714.6
2017-Dec-01 01:31N 37°48' W 122°24'714.6
2017-Dec-01 01:00N 37°44' W 122°15'714.6
2017-Dec-01 00:30N 37°48' W 122°24'0 0.0
2017-Dec-01 00:01N 37°48' W 122°24'0 0.0
2017-Nov-30 23:30N 37°48' W 122°24'0 0.1
2017-Nov-30 23:00N 37°48' W 122°23'5 9.6
2017-Nov-30 22:31N 37°48' W 122°17'5 9.7
2017-Nov-30 22:00N 37°48' W 122°24'1 2.6
2017-Nov-30 21:30N 37°49' W 122°25'0 0.0
2017-Nov-30 21:00N 37°49' W 122°25'0 0.0
2017-Nov-30 20:30N 37°49' W 122°25'0 0.0
2017-Nov-30 20:00N 37°49' W 122°25'1 2.6
2017-Nov-30 19:30N 37°48' W 122°23'510.4
2017-Nov-30 19:00N 37°48' W 122°17'510.6
2017-Nov-30 18:30N 37°48' W 122°24'1 2.6
2017-Nov-30 18:00N 37°49' W 122°25'0 0.0
2017-Nov-30 17:30N 37°49' W 122°25'1 2.6
2017-Nov-30 17:01N 37°48' W 122°24'714.6
2017-Nov-30 16:30N 37°44' W 122°15'714.6
2017-Nov-30 16:00N 37°48' W 122°24'714.6
2017-Nov-30 15:30N 37°44' W 122°15'714.7
2017-Nov-30 15:00N 37°48' W 122°24'714.6
2017-Nov-30 14:30N 37°44' W 122°15'0 0.0
2017-Nov-30 14:01N 37°44' W 122°15'917.2
2017-Nov-30 13:30N 37°49' W 122°25'0 0.2
2017-Nov-30 13:00N 37°49' W 122°25'0 0.0
2017-Nov-30 04:38N 37°49' W 122°25'0 0.0
2017-Nov-30 04:30N 37°49' W 122°25'917.1
2017-Nov-30 04:00N 37°44' W 122°15'714.6
2017-Nov-30 03:30N 37°48' W 122°24'714.6
2017-Nov-30 03:00N 37°44' W 122°15'714.7
2017-Nov-30 02:31N 37°48' W 122°24'714.6
2017-Nov-30 02:01N 37°44' W 122°15'714.5
2017-Nov-30 01:30N 37°48' W 122°24'714.8
2017-Nov-30 01:01N 37°44' W 122°15'714.6
2017-Nov-30 00:30N 37°48' W 122°24'0 0.0
2017-Nov-30 00:00N 37°48' W 122°24'0 0.0
2017-Nov-29 23:30N 37°48' W 122°24'0 0.9
2017-Nov-29 23:01N 37°48' W 122°23'5 9.4
2017-Nov-29 22:30N 37°48' W 122°17'510.2
2017-Nov-29 22:00N 37°48' W 122°24'1 2.6
2017-Nov-29 21:31N 37°49' W 122°25'0 0.0
2017-Nov-29 21:01N 37°49' W 122°25'0 0.0
2017-Nov-29 20:31N 37°49' W 122°25'0 0.0
2017-Nov-29 20:01N 37°49' W 122°25'1 2.6
2017-Nov-29 19:31N 37°48' W 122°24'510.6
2017-Nov-29 19:00N 37°48' W 122°17'510.5
2017-Nov-29 18:30N 37°48' W 122°23'1 2.6
2017-Nov-29 18:00N 37°49' W 122°25'0 0.0
2017-Nov-29 17:30N 37°49' W 122°25'1 2.7
2017-Nov-29 17:01N 37°48' W 122°23'714.5
2017-Nov-29 16:30N 37°44' W 122°15'714.7
2017-Nov-29 16:01N 37°48' W 122°24'714.6
2017-Nov-29 15:31N 37°44' W 122°15'714.6
2017-Nov-29 15:00N 37°48' W 122°24'714.6
2017-Nov-29 14:30N 37°44' W 122°15'0 0.0
2017-Nov-29 14:00N 37°44' W 122°15'917.1
2017-Nov-29 13:30N 37°49' W 122°25'0 0.0
2017-Nov-29 13:00N 37°49' W 122°25'0 0.0
2017-Nov-29 04:41N 37°49' W 122°25'0 2.3
2017-Nov-29 04:31N 37°49' W 122°24'917.1
2017-Nov-29 04:01N 37°44' W 122°15'714.6
2017-Nov-29 03:30N 37°48' W 122°24'714.6
2017-Nov-29 03:00N 37°44' W 122°15'714.6
2017-Nov-29 02:30N 37°48' W 122°24'714.6
2017-Nov-29 02:01N 37°44' W 122°15'714.6
2017-Nov-29 01:30N 37°48' W 122°24'714.7
2017-Nov-29 01:01N 37°44' W 122°15'714.6
2017-Nov-29 00:30N 37°48' W 122°24'0 0.0
2017-Nov-29 00:01N 37°48' W 122°24'0 0.0
2017-Nov-28 23:30N 37°48' W 122°24'2 3.3
2017-Nov-28 23:01N 37°48' W 122°21'3 6.9
2017-Nov-28 22:30N 37°48' W 122°17'510.2
2017-Nov-28 22:00N 37°48' W 122°24'1 2.6
2017-Nov-28 21:31N 37°49' W 122°25'0 0.0
2017-Nov-28 21:00N 37°49' W 122°25'0 0.0
2017-Nov-28 20:30N 37°49' W 122°25'0 0.0
2017-Nov-28 20:01N 37°49' W 122°25'1 2.5
2017-Nov-28 19:30N 37°48' W 122°23'510.2
2017-Nov-28 19:00N 37°48' W 122°17'510.6
2017-Nov-28 18:30N 37°48' W 122°24'1 2.6
2017-Nov-28 18:01N 37°49' W 122°25'0 0.0
2017-Nov-28 17:30N 37°49' W 122°25'1 2.6
2017-Nov-28 17:00N 37°48' W 122°24'714.7
2017-Nov-28 16:31N 37°44' W 122°15'714.6
2017-Nov-28 16:01N 37°48' W 122°24'0 0.0
2017-Nov-28 15:01N 37°48' W 122°24'714.6
2017-Nov-28 14:30N 37°44' W 122°15'0 0.1
2017-Nov-28 14:01N 37°44' W 122°15'815.2
2017-Nov-28 13:30N 37°48' W 122°24'0 0.0
2017-Nov-28 13:00N 37°48' W 122°24'0 0.0
2017-Nov-28 04:31N 37°48' W 122°24'815.4
2017-Nov-28 04:01N 37°44' W 122°15'714.6
2017-Nov-28 03:30N 37°48' W 122°24'714.6
2017-Nov-28 03:00N 37°44' W 122°15'714.6
2017-Nov-28 02:31N 37°48' W 122°24'714.6
2017-Nov-28 02:01N 37°44' W 122°15'714.6
2017-Nov-28 01:31N 37°48' W 122°24'714.6
2017-Nov-28 01:00N 37°44' W 122°15'714.6
2017-Nov-28 00:31N 37°48' W 122°24'0 0.0
2017-Nov-28 00:01N 37°48' W 122°24'0 0.0
2017-Nov-27 23:31N 37°48' W 122°24'0 0.1
2017-Nov-27 23:01N 37°48' W 122°23'510.2
2017-Nov-27 22:31N 37°48' W 122°17'510.3
2017-Nov-27 22:01N 37°48' W 122°24'1 2.6
2017-Nov-27 21:30N 37°49' W 122°25'0 0.0
2017-Nov-27 21:00N 37°49' W 122°25'0 0.0
2017-Nov-27 20:30N 37°49' W 122°25'0 0.0
2017-Nov-27 20:00N 37°49' W 122°25'1 2.6
2017-Nov-27 19:30N 37°48' W 122°24'510.6
2017-Nov-27 19:00N 37°48' W 122°17'510.6
2017-Nov-27 18:30N 37°48' W 122°24'1 2.6
2017-Nov-27 18:00N 37°49' W 122°25'0 0.0
2017-Nov-27 17:30N 37°49' W 122°25'1 2.6
2017-Nov-27 17:01N 37°48' W 122°24'714.6
2017-Nov-27 16:30N 37°44' W 122°15'714.7
2017-Nov-27 16:01N 37°48' W 122°24'714.6
2017-Nov-27 15:30N 37°44' W 122°15'714.5
2017-Nov-27 15:00N 37°48' W 122°24'714.7
2017-Nov-27 14:30N 37°44' W 122°15'0 0.0
2017-Nov-27 14:00N 37°44' W 122°15'917.4
2017-Nov-27 13:30N 37°49' W 122°25'0 0.3
2017-Nov-27 13:00N 37°49' W 122°25'0 0.0
2017-Nov-26 02:54N 37°49' W 122°25'1 3.3
2017-Nov-26 02:30N 37°48' W 122°23'510.5
2017-Nov-26 02:00N 37°48' W 122°17'3 5.2
2017-Nov-26 01:31N 37°48' W 122°20'4 7.5
2017-Nov-26 01:00N 37°49' W 122°25'0 0.0
2017-Nov-26 00:30N 37°49' W 122°25'0 0.0
2017-Nov-26 00:00N 37°49' W 122°25'4 7.0
2017-Nov-25 23:30N 37°48' W 122°20'2 4.3
2017-Nov-25 23:01N 37°47' W 122°18'5 9.2
2017-Nov-25 22:31N 37°48' W 122°24'1 2.6
2017-Nov-25 22:00N 37°49' W 122°25'0 0.0
2017-Nov-25 21:30N 37°49' W 122°25'1 2.6
2017-Nov-25 21:00N 37°48' W 122°24'510.7
2017-Nov-25 20:31N 37°48' W 122°17'1 2.2
2017-Nov-25 20:01N 37°47' W 122°18'510.6
2017-Nov-25 19:31N 37°49' W 122°25'1 2.5
2017-Nov-25 19:00N 37°48' W 122°24'510.7
2017-Nov-25 18:30N 37°48' W 122°17'2 3.4
2017-Nov-25 18:01N 37°48' W 122°19'5 9.2
2017-Nov-25 17:30N 37°49' W 122°25'0 0.0
2017-Nov-25 17:00N 37°49' W 122°25'0 0.0
2017-Nov-25 16:30N 37°49' W 122°25'  
2017-Nov-23 04:41N 37°49' W 122°25'0 0.0
2017-Nov-23 04:31N 37°49' W 122°25'917.1
2017-Nov-23 04:01N 37°44' W 122°15'714.6
2017-Nov-23 03:31N 37°48' W 122°24'714.6
2017-Nov-23 03:00N 37°44' W 122°15'714.6
2017-Nov-23 02:30N 37°48' W 122°24'714.6
2017-Nov-23 02:00N 37°44' W 122°15'714.7
2017-Nov-23 01:31N 37°48' W 122°24'714.6
2017-Nov-23 01:01N 37°44' W 122°15'714.6
2017-Nov-23 00:30N 37°48' W 122°24'0 0.0
2017-Nov-23 00:01N 37°48' W 122°24'0 0.0
2017-Nov-22 23:31N 37°48' W 122°24'3 5.3
2017-Nov-22 23:01N 37°48' W 122°20'2 4.0
2017-Nov-22 22:30N 37°47' W 122°18'5 9.1
2017-Nov-22 22:00N 37°48' W 122°24'1 2.6
2017-Nov-22 21:30N 37°49' W 122°25'0 0.0
2017-Nov-22 21:00N 37°49' W 122°25'0 0.0
2017-Nov-22 20:30N 37°49' W 122°25'0 0.0
2017-Nov-22 20:00N 37°49' W 122°25'1 2.8
2017-Nov-22 19:31N 37°48' W 122°23'  
Track history (hours):
 
Tides and Currents Weather Stations Pressure Air Temp Water Temp Dewpoint Dewpoint Depression Visibility Wind Speed Wind Dir Waves Ship Positions

Peralta

Owner: Blue and Gold Fleet, San Francisco, CA. More information available from US FCC via Universal Licensing System and Coast Guard Vessel Documentation Center.

Last reported at 2017-Dec-01 18:16 UTC. Time now 2017-Dec-14 13:20 UTC.
Position N 38°06' W 122°16'.
Warning: this ship's position is 12 days out of date.

Length 33 m; draft 2.5 m.

Type: Passenger vessel. MMSI: 366983830.

Date/timePositionNaut miles runAvg speedWind from/ knotsBaromVisibWave heightAir tempDewpointWater temp
2017-Dec-01 18:16N 38°06' W 122°16'2 9.1
2017-Dec-01 18:00N 38°04' W 122°16'1122.5
2017-Dec-01 17:30N 37°57' W 122°27'816.3
2017-Dec-01 17:00N 37°49' W 122°25'1 1.7
2017-Dec-01 16:30N 37°48' W 122°24'0 0.0
2017-Dec-01 04:35N 37°48' W 122°24'0 0.0
2017-Dec-01 04:30N 37°48' W 122°24'815.4
2017-Dec-01 04:00N 37°44' W 122°15'714.6
2017-Dec-01 03:30N 37°48' W 122°24'714.6
2017-Dec-01 03:00N 37°44' W 122°15'714.6
2017-Dec-01 02:31N 37°48' W 122°24'714.6
2017-Dec-01 02:01N 37°44' W 122°15'714.6
2017-Dec-01 01:31N 37°48' W 122°24'714.6
2017-Dec-01 01:00N 37°44' W 122°15'714.6
2017-Dec-01 00:30N 37°48' W 122°24'0 0.0
2017-Dec-01 00:01N 37°48' W 122°24'0 0.0
2017-Nov-30 23:30N 37°48' W 122°24'0 0.1
2017-Nov-30 23:00N 37°48' W 122°23'5 9.6
2017-Nov-30 22:31N 37°48' W 122°17'5 9.7
2017-Nov-30 22:00N 37°48' W 122°24'1 2.6
2017-Nov-30 21:30N 37°49' W 122°25'0 0.0
2017-Nov-30 21:00N 37°49' W 122°25'0 0.0
2017-Nov-30 20:30N 37°49' W 122°25'0 0.0
2017-Nov-30 20:00N 37°49' W 122°25'1 2.6
2017-Nov-30 19:30N 37°48' W 122°23'510.4
2017-Nov-30 19:00N 37°48' W 122°17'510.6
2017-Nov-30 18:30N 37°48' W 122°24'1 2.6
2017-Nov-30 18:00N 37°49' W 122°25'0 0.0
2017-Nov-30 17:30N 37°49' W 122°25'1 2.6
2017-Nov-30 17:01N 37°48' W 122°24'714.6
2017-Nov-30 16:30N 37°44' W 122°15'714.6
2017-Nov-30 16:00N 37°48' W 122°24'714.6
2017-Nov-30 15:30N 37°44' W 122°15'714.7
2017-Nov-30 15:00N 37°48' W 122°24'714.6
2017-Nov-30 14:30N 37°44' W 122°15'0 0.0
2017-Nov-30 14:01N 37°44' W 122°15'917.2
2017-Nov-30 13:30N 37°49' W 122°25'0 0.2
2017-Nov-30 13:00N 37°49' W 122°25'0 0.0
2017-Nov-30 04:38N 37°49' W 122°25'0 0.0
2017-Nov-30 04:30N 37°49' W 122°25'917.1
2017-Nov-30 04:00N 37°44' W 122°15'714.6
2017-Nov-30 03:30N 37°48' W 122°24'714.6
2017-Nov-30 03:00N 37°44' W 122°15'714.7
2017-Nov-30 02:31N 37°48' W 122°24'714.6
2017-Nov-30 02:01N 37°44' W 122°15'714.5
2017-Nov-30 01:30N 37°48' W 122°24'714.8
2017-Nov-30 01:01N 37°44' W 122°15'714.6
2017-Nov-30 00:30N 37°48' W 122°24'0 0.0
2017-Nov-30 00:00N 37°48' W 122°24'0 0.0
2017-Nov-29 23:30N 37°48' W 122°24'0 0.9
2017-Nov-29 23:01N 37°48' W 122°23'5 9.4
2017-Nov-29 22:30N 37°48' W 122°17'510.2
2017-Nov-29 22:00N 37°48' W 122°24'1 2.6
2017-Nov-29 21:31N 37°49' W 122°25'0 0.0
2017-Nov-29 21:01N 37°49' W 122°25'0 0.0
2017-Nov-29 20:31N 37°49' W 122°25'0 0.0
2017-Nov-29 20:01N 37°49' W 122°25'1 2.6
2017-Nov-29 19:31N 37°48' W 122°24'510.6
2017-Nov-29 19:00N 37°48' W 122°17'510.5
2017-Nov-29 18:30N 37°48' W 122°23'1 2.6
2017-Nov-29 18:00N 37°49' W 122°25'0 0.0
2017-Nov-29 17:30N 37°49' W 122°25'1 2.7
2017-Nov-29 17:01N 37°48' W 122°23'714.5
2017-Nov-29 16:30N 37°44' W 122°15'714.7
2017-Nov-29 16:01N 37°48' W 122°24'714.6
2017-Nov-29 15:31N 37°44' W 122°15'714.6
2017-Nov-29 15:00N 37°48' W 122°24'714.6
2017-Nov-29 14:30N 37°44' W 122°15'0 0.0
2017-Nov-29 14:00N 37°44' W 122°15'917.1
2017-Nov-29 13:30N 37°49' W 122°25'0 0.0
2017-Nov-29 13:00N 37°49' W 122°25'0 0.0
2017-Nov-29 04:41N 37°49' W 122°25'0 2.3
2017-Nov-29 04:31N 37°49' W 122°24'917.1
2017-Nov-29 04:01N 37°44' W 122°15'714.6
2017-Nov-29 03:30N 37°48' W 122°24'714.6
2017-Nov-29 03:00N 37°44' W 122°15'714.6
2017-Nov-29 02:30N 37°48' W 122°24'714.6
2017-Nov-29 02:01N 37°44' W 122°15'714.6
2017-Nov-29 01:30N 37°48' W 122°24'714.7
2017-Nov-29 01:01N 37°44' W 122°15'714.6
2017-Nov-29 00:30N 37°48' W 122°24'0 0.0
2017-Nov-29 00:01N 37°48' W 122°24'0 0.0
2017-Nov-28 23:30N 37°48' W 122°24'2 3.3
2017-Nov-28 23:01N 37°48' W 122°21'3 6.9
2017-Nov-28 22:30N 37°48' W 122°17'510.2
2017-Nov-28 22:00N 37°48' W 122°24'1 2.6
2017-Nov-28 21:31N 37°49' W 122°25'0 0.0
2017-Nov-28 21:00N 37°49' W 122°25'0 0.0
2017-Nov-28 20:30N 37°49' W 122°25'0 0.0
2017-Nov-28 20:01N 37°49' W 122°25'1 2.5
2017-Nov-28 19:30N 37°48' W 122°23'510.2
2017-Nov-28 19:00N 37°48' W 122°17'510.6
2017-Nov-28 18:30N 37°48' W 122°24'1 2.6
2017-Nov-28 18:01N 37°49' W 122°25'0 0.0
2017-Nov-28 17:30N 37°49' W 122°25'1 2.6
2017-Nov-28 17:00N 37°48' W 122°24'714.7
2017-Nov-28 16:31N 37°44' W 122°15'714.6
2017-Nov-28 16:01N 37°48' W 122°24'0 0.0
2017-Nov-28 15:01N 37°48' W 122°24'714.6
2017-Nov-28 14:30N 37°44' W 122°15'0 0.1
2017-Nov-28 14:01N 37°44' W 122°15'815.2
2017-Nov-28 13:30N 37°48' W 122°24'0 0.0
2017-Nov-28 13:00N 37°48' W 122°24'0 0.0
2017-Nov-28 04:31N 37°48' W 122°24'815.4
2017-Nov-28 04:01N 37°44' W 122°15'714.6
2017-Nov-28 03:30N 37°48' W 122°24'714.6
2017-Nov-28 03:00N 37°44' W 122°15'714.6
2017-Nov-28 02:31N 37°48' W 122°24'714.6
2017-Nov-28 02:01N 37°44' W 122°15'714.6
2017-Nov-28 01:31N 37°48' W 122°24'714.6
2017-Nov-28 01:00N 37°44' W 122°15'714.6
2017-Nov-28 00:31N 37°48' W 122°24'0 0.0
2017-Nov-28 00:01N 37°48' W 122°24'0 0.0
2017-Nov-27 23:31N 37°48' W 122°24'0 0.1
2017-Nov-27 23:01N 37°48' W 122°23'510.2
2017-Nov-27 22:31N 37°48' W 122°17'510.3
2017-Nov-27 22:01N 37°48' W 122°24'1 2.6
2017-Nov-27 21:30N 37°49' W 122°25'0 0.0
2017-Nov-27 21:00N 37°49' W 122°25'0 0.0
2017-Nov-27 20:30N 37°49' W 122°25'0 0.0
2017-Nov-27 20:00N 37°49' W 122°25'1 2.6
2017-Nov-27 19:30N 37°48' W 122°24'510.6
2017-Nov-27 19:00N 37°48' W 122°17'510.6
2017-Nov-27 18:30N 37°48' W 122°24'1 2.6
2017-Nov-27 18:00N 37°49' W 122°25'0 0.0
2017-Nov-27 17:30N 37°49' W 122°25'1 2.6
2017-Nov-27 17:01N 37°48' W 122°24'714.6
2017-Nov-27 16:30N 37°44' W 122°15'714.7
2017-Nov-27 16:01N 37°48' W 122°24'714.6
2017-Nov-27 15:30N 37°44' W 122°15'714.5
2017-Nov-27 15:00N 37°48' W 122°24'714.7
2017-Nov-27 14:30N 37°44' W 122°15'0 0.0
2017-Nov-27 14:00N 37°44' W 122°15'917.4
2017-Nov-27 13:30N 37°49' W 122°25'0 0.3
2017-Nov-27 13:00N 37°49' W 122°25'0 0.0
2017-Nov-26 02:54N 37°49' W 122°25'1 3.3
2017-Nov-26 02:30N 37°48' W 122°23'510.5
2017-Nov-26 02:00N 37°48' W 122°17'3 5.2
2017-Nov-26 01:31N 37°48' W 122°20'4 7.5
2017-Nov-26 01:00N 37°49' W 122°25'0 0.0
2017-Nov-26 00:30N 37°49' W 122°25'0 0.0
2017-Nov-26 00:00N 37°49' W 122°25'4 7.0
2017-Nov-25 23:30N 37°48' W 122°20'2 4.3
2017-Nov-25 23:01N 37°47' W 122°18'5 9.2
2017-Nov-25 22:31N 37°48' W 122°24'1 2.6
2017-Nov-25 22:00N 37°49' W 122°25'0 0.0
2017-Nov-25 21:30N 37°49' W 122°25'1 2.6
2017-Nov-25 21:00N 37°48' W 122°24'510.7
2017-Nov-25 20:31N 37°48' W 122°17'1 2.2
2017-Nov-25 20:01N 37°47' W 122°18'510.6
2017-Nov-25 19:31N 37°49' W 122°25'1 2.5
2017-Nov-25 19:00N 37°48' W 122°24'510.7
2017-Nov-25 18:30N 37°48' W 122°17'2 3.4
2017-Nov-25 18:01N 37°48' W 122°19'5 9.2
2017-Nov-25 17:30N 37°49' W 122°25'0 0.0
2017-Nov-25 17:00N 37°49' W 122°25'0 0.0
2017-Nov-25 16:30N 37°49' W 122°25'  
2017-Nov-23 04:41N 37°49' W 122°25'0 0.0
2017-Nov-23 04:31N 37°49' W 122°25'917.1
2017-Nov-23 04:01N 37°44' W 122°15'714.6
2017-Nov-23 03:31N 37°48' W 122°24'714.6
2017-Nov-23 03:00N 37°44' W 122°15'714.6
2017-Nov-23 02:30N 37°48' W 122°24'714.6
2017-Nov-23 02:00N 37°44' W 122°15'714.7
2017-Nov-23 01:31N 37°48' W 122°24'714.6
2017-Nov-23 01:01N 37°44' W 122°15'714.6
2017-Nov-23 00:30N 37°48' W 122°24'0 0.0
2017-Nov-23 00:01N 37°48' W 122°24'0 0.0
2017-Nov-22 23:31N 37°48' W 122°24'3 5.3
2017-Nov-22 23:01N 37°48' W 122°20'2 4.0
2017-Nov-22 22:30N 37°47' W 122°18'5 9.1
2017-Nov-22 22:00N 37°48' W 122°24'1 2.6
2017-Nov-22 21:30N 37°49' W 122°25'0 0.0
2017-Nov-22 21:00N 37°49' W 122°25'0 0.0
2017-Nov-22 20:30N 37°49' W 122°25'0 0.0
2017-Nov-22 20:00N 37°49' W 122°25'1 2.8
2017-Nov-22 19:31N 37°48' W 122°23'  

Dump ship's entire track history